createdAt,value
2022-11-09T00:00:05.969Z,100012.66
2022-11-09T00:02:32.700Z,100023.94
2022-11-09T00:04:59.182Z,100020.34
2022-11-09T00:07:25.565Z,100017.09
2022-11-09T00:09:52.020Z,100020.34
2022-11-09T00:12:18.398Z,100012.66
2022-11-09T00:14:44.754Z,100016.72
2022-11-09T00:17:11.166Z,100019.09
2022-11-09T00:19:37.535Z,100016.28
2022-11-09T00:22:04.039Z,100020.31
2022-11-09T00:24:30.561Z,100009.81
2022-11-09T00:26:56.958Z,100007.00
2022-11-09T00:29:23.470Z,100016.25
2022-11-09T00:31:50.454Z,100011.41
2022-11-09T00:34:17.096Z,100015.03
2022-11-09T00:36:43.649Z,100010.19
2022-11-09T00:39:10.021Z,100006.16
2022-11-09T00:41:36.366Z,100008.97
2022-11-09T00:44:02.967Z,100004.16
2022-11-09T00:46:29.823Z,99999.72
2022-11-09T00:48:56.508Z,99994.06
2022-11-09T00:51:22.883Z,99994.06
2022-11-09T00:53:53.877Z,99996.09
2022-11-09T00:56:21.384Z,99998.13
2022-11-09T00:58:47.729Z,100001.75
2022-11-09T01:01:17.833Z,100008.59
2022-11-09T01:03:45.330Z,100003.75
2022-11-09T01:06:22.967Z,100002.59
2022-11-09T01:08:49.738Z,100005.34
2022-11-09T01:11:18.193Z,100008.59
2022-11-09T01:13:45.651Z,100000.16
2022-11-09T01:16:15.357Z,100004.19
2022-11-09T01:18:42.238Z,100005.41
2022-11-09T01:21:11.518Z,100011.44
2022-11-09T01:23:40.390Z,100009.84
2022-11-09T01:26:09.234Z,100005.44
2022-11-09T01:28:36.027Z,99998.22
2022-11-09T01:31:05.120Z,100007.84
2022-11-09T01:33:32.242Z,99997.41
2022-11-09T01:36:03.709Z,100000.63
2022-11-09T01:38:30.180Z,99992.97
2022-11-09T01:40:56.782Z,100001.41
2022-11-09T01:43:25.067Z,100003.88
2022-11-09T01:46:14.126Z,100003.47
2022-11-09T01:49:03.555Z,100005.13
2022-11-09T01:51:36.183Z,100005.50
2022-11-09T01:54:10.676Z,100004.69
2022-11-09T01:56:38.094Z,100010.34
2022-11-09T01:59:11.355Z,100010.75
2022-11-09T02:01:37.972Z,100001.94
2022-11-09T02:04:22.879Z,100014.47
2022-11-09T02:06:50.446Z,100006.38
2022-11-09T02:09:26.686Z,99999.97
2022-11-09T02:11:53.078Z,100003.97
2022-11-09T02:14:22.732Z,100003.19
2022-11-09T02:16:49.877Z,99997.56
2022-11-09T02:19:16.418Z,99998.00
2022-11-09T02:21:42.872Z,99992.75
2022-11-09T02:24:09.450Z,99991.16
2022-11-09T02:26:47.722Z,99998.03
2022-11-09T02:29:18.651Z,99997.63
2022-11-09T02:31:57.323Z,100004.47
2022-11-09T02:34:25.267Z,99994.44
2022-11-09T02:36:52.042Z,99997.25
2022-11-09T02:39:21.253Z,99996.03
2022-11-09T02:42:15.766Z,99996.47
2022-11-09T02:44:51.798Z,100000.50
2022-11-09T02:47:18.118Z,99992.47
2022-11-09T02:49:44.448Z,99981.59
2022-11-09T02:52:10.931Z,99984.84
2022-11-09T02:54:37.529Z,99982.84
2022-11-09T02:57:03.999Z,99988.13
2022-11-09T02:59:30.412Z,99993.34
2022-11-09T03:01:56.731Z,99988.56
2022-11-09T03:04:23.084Z,99991.78
2022-11-09T03:06:49.539Z,100000.66
2022-11-09T03:09:16.783Z,99991.41
2022-11-09T03:11:43.706Z,100004.31
2022-11-09T03:14:10.500Z,100015.19
2022-11-09T03:16:38.482Z,100007.16
2022-11-09T03:19:06.039Z,100008.81
2022-11-09T03:21:32.597Z,99996.72
2022-11-09T03:23:59.083Z,100008.81
2022-11-09T03:26:26.832Z,100007.63
2022-11-09T03:28:53.192Z,100002.41
2022-11-09T03:31:19.648Z,100016.88
2022-11-09T03:33:46.039Z,100012.88
2022-11-09T03:36:12.678Z,100006.06
2022-11-09T03:38:39.317Z,100005.22
2022-11-09T03:41:05.722Z,100004.84
2022-11-09T03:43:32.076Z,100002.03
2022-11-09T03:45:58.505Z,100010.09
2022-11-09T03:48:25.018Z,100014.13
2022-11-09T03:50:51.792Z,100018.94
2022-11-09T03:53:18.516Z,100017.34
2022-11-09T03:55:45.809Z,100021.75
2022-11-09T03:58:15.538Z,100027.81
2022-11-09T04:00:42.013Z,100038.25
2022-11-09T04:03:08.429Z,100034.22
2022-11-09T04:05:34.761Z,100038.25
2022-11-09T04:08:01.773Z,100033.44
2022-11-09T04:10:28.192Z,100040.66
2022-11-09T04:12:54.637Z,100036.63
2022-11-09T04:15:21.460Z,100037.41
2022-11-09T04:17:55.330Z,100039.84
2022-11-09T04:20:21.699Z,100041.84
2022-11-09T04:22:54.951Z,100040.25
2022-11-09T04:25:21.343Z,100035.00
2022-11-09T04:27:47.740Z,100036.19
2022-11-09T04:30:14.238Z,100029.38
2022-11-09T04:32:40.727Z,100033.00
2022-11-09T04:35:07.654Z,100033.38
2022-11-09T04:37:34.001Z,100034.97
2022-11-09T04:40:00.397Z,100032.97
2022-11-09T04:42:26.762Z,100049.88
2022-11-09T04:44:53.139Z,100053.09
2022-11-09T04:47:19.484Z,100045.00
2022-11-09T04:49:46.345Z,100040.97
2022-11-09T04:52:12.863Z,100039.75
2022-11-09T04:54:39.202Z,100036.53
2022-11-09T04:57:05.520Z,100034.09
2022-11-09T04:59:32.036Z,100045.34
2022-11-09T05:01:58.387Z,100037.72
2022-11-09T05:04:24.942Z,100034.47
2022-11-09T05:06:51.500Z,100032.88
2022-11-09T05:09:17.856Z,100039.31
2022-11-09T05:11:44.162Z,100039.72
2022-11-09T05:14:10.781Z,100041.75
2022-11-09T05:16:37.343Z,100047.81
2022-11-09T05:19:03.730Z,100049.41
2022-11-09T05:21:31.432Z,100052.22
2022-11-09T05:24:00.926Z,100052.59
2022-11-09T05:26:30.321Z,100053.44
2022-11-09T05:28:59.161Z,100049.00
2022-11-09T05:31:27.122Z,100049.78
2022-11-09T05:33:54.711Z,100061.06
2022-11-09T05:36:21.853Z,100064.28
2022-11-09T05:38:48.915Z,100060.66
2022-11-09T05:41:16.113Z,100066.66
2022-11-09T05:43:48.356Z,100060.25
2022-11-09T05:46:16.334Z,100060.66
2022-11-09T05:48:43.710Z,100069.91
2022-11-09T05:51:13.605Z,100068.69
2022-11-09T05:53:45.196Z,100067.88
2022-11-09T05:56:13.900Z,100071.13
2022-11-09T05:58:42.144Z,100072.31
2022-11-09T06:01:11.577Z,100082.00
2022-11-09T06:03:39.079Z,100085.22
2022-11-09T06:06:08.914Z,100072.75
2022-11-09T06:08:35.835Z,100069.56
2022-11-09T06:11:05.993Z,100073.63
2022-11-09T06:13:32.862Z,100064.34
2022-11-09T06:16:01.021Z,100073.22
2022-11-09T06:18:29.767Z,100066.81
2022-11-09T06:20:58.584Z,100078.09
2022-11-09T06:23:25.743Z,100084.16
2022-11-09T06:26:13.222Z,100085.78
2022-11-09T06:28:41.048Z,100087.78
2022-11-09T06:31:13.344Z,100087.44
2022-11-09T06:33:39.961Z,100080.59
2022-11-09T06:36:06.818Z,100091.09
2022-11-09T06:41:02.695Z,100088.28
2022-11-09T06:43:29.426Z,100101.59
2022-11-09T06:45:56.026Z,100104.00
2022-11-09T06:48:22.901Z,100101.59
2022-11-09T06:50:49.434Z,100103.63
2022-11-09T06:53:17.661Z,100106.84
2022-11-09T06:55:50.217Z,100099.66
2022-11-09T06:58:17.833Z,100102.84
2022-11-09T07:00:45.217Z,100110.47
2022-11-09T07:03:16.390Z,100105.22
2022-11-09T07:05:43.198Z,100100.03
2022-11-09T07:08:10.128Z,100111.66
2022-11-09T07:10:37.280Z,100106.44
2022-11-09T07:13:04.681Z,100114.88
2022-11-09T07:15:31.660Z,100111.69
2022-11-09T07:18:02.650Z,100110.47
2022-11-09T07:20:30.616Z,100116.88
2022-11-09T07:22:57.035Z,100114.06
2022-11-09T07:25:25.118Z,100121.31
2022-11-09T07:27:51.899Z,100123.72
2022-11-09T07:30:18.754Z,100124.53
2022-11-09T07:35:32.717Z,100128.56
2022-11-09T07:38:00.591Z,100134.19
2022-11-09T07:40:27.095Z,100139.00
2022-11-09T07:42:53.404Z,100134.19
2022-11-09T07:45:19.697Z,100135.78
2022-11-09T07:47:45.995Z,100136.59
2022-11-09T07:50:12.532Z,100141.41
2022-11-09T07:52:38.918Z,100134.19
2022-11-09T07:55:06.069Z,100139.41
2022-11-09T07:57:32.738Z,100133.38
2022-11-09T07:59:59.205Z,100129.34
2022-11-09T08:02:25.838Z,100133.38
2022-11-09T08:04:55.289Z,100141.81
2022-11-09T08:07:23.717Z,100145.81
2022-11-09T08:09:50.063Z,100151.03
2022-11-09T08:12:16.426Z,100152.25
2022-11-09T08:14:45.864Z,100153.06
2022-11-09T08:17:12.442Z,100156.28
2022-11-09T08:19:39.105Z,100157.50
2022-11-09T08:22:06.784Z,100149.06
2022-11-09T08:24:34.658Z,100155.88
2022-11-09T08:27:00.966Z,100154.69
2022-11-09T08:29:27.251Z,100155.47
2022-11-09T08:31:53.630Z,100158.28
2022-11-09T08:34:20.042Z,100159.50
2022-11-09T08:36:46.445Z,100161.91
2022-11-09T08:39:13.010Z,100163.91
2022-11-09T08:41:39.508Z,100164.31
2022-11-09T08:44:06.079Z,100173.97
2022-11-09T08:46:35.806Z,100166.69
2022-11-09T08:49:06.685Z,100171.53
2022-11-09T08:51:33.208Z,100170.75
2022-11-09T08:53:59.638Z,100173.13
2022-11-09T08:56:26.064Z,100184.78
2022-11-09T08:58:52.633Z,100174.31
2022-11-09T09:01:19.254Z,100184.78
2022-11-09T09:03:46.845Z,100191.59
2022-11-09T09:06:15.555Z,100189.56
2022-11-09T09:08:42.091Z,100192.78
2022-11-09T09:11:09.118Z,100179.50
2022-11-09T09:13:39.124Z,100187.94
2022-11-09T09:16:14.411Z,100196.38
2022-11-09T09:18:41.016Z,100198.00
2022-11-09T09:21:10.474Z,100191.16
2022-11-09T09:23:39.306Z,100187.91
2022-11-09T09:26:06.301Z,100189.50
2022-11-09T09:28:32.927Z,100196.31
2022-11-09T09:31:00.774Z,100197.53
2022-11-09T09:33:28.168Z,100189.84
2022-11-09T09:35:58.805Z,100199.47
2022-11-09T09:38:26.662Z,100199.03
2022-11-09T09:41:01.755Z,100195.78
2022-11-09T09:43:42.555Z,100196.53
2022-11-09T09:46:33.401Z,100199.34
2022-11-09T09:49:29.642Z,100204.53
2022-11-09T09:52:18.091Z,100210.94
2022-11-09T09:54:53.139Z,100208.47
2022-11-09T09:57:22.678Z,100218.91
2022-11-09T09:59:54.940Z,100210.00
2022-11-09T10:02:29.758Z,100212.38
2022-11-09T10:05:01.943Z,100217.63
2022-11-09T10:07:34.911Z,100215.16
2022-11-09T10:10:26.763Z,100210.75
2022-11-09T10:13:14.806Z,100221.19
2022-11-09T10:15:50.275Z,100217.53
2022-11-09T10:18:26.034Z,100212.69
2022-11-09T10:21:11.352Z,100214.69
2022-11-09T10:23:54.310Z,100217.09
2022-11-09T10:26:28.173Z,100215.44
2022-11-09T10:29:15.487Z,100219.38
2022-11-09T10:31:45.661Z,100217.69
2022-11-09T10:34:23.483Z,100219.69
2022-11-09T10:37:15.251Z,100209.13
2022-11-09T10:39:51.915Z,100209.50
2022-11-09T10:42:18.346Z,100219.91
2022-11-09T10:44:44.688Z,100213.03
2022-11-09T10:47:16.806Z,100227.13
2022-11-09T10:49:43.441Z,100215.41
2022-11-09T10:52:44.302Z,100213.41
2022-11-09T10:55:32.630Z,100206.09
2022-11-09T10:58:03.625Z,100214.91
2022-11-09T11:00:30.308Z,100211.25
2022-11-09T11:02:57.318Z,100222.56
2022-11-09T11:05:26.520Z,100208.00
2022-11-09T11:07:52.992Z,100211.63
2022-11-09T11:10:20.990Z,100219.31
2022-11-09T11:12:59.764Z,100217.31
2022-11-09T11:15:38.477Z,100229.41
2022-11-09T11:18:13.065Z,100219.72
2022-11-09T11:20:39.554Z,100215.72
2022-11-09T11:23:11.172Z,100228.25
2022-11-09T11:25:58.064Z,100229.06
2022-11-09T11:28:33.803Z,100235.94
2022-11-09T11:31:00.438Z,100231.06
2022-11-09T11:33:26.949Z,100220.22
2022-11-09T11:36:04.999Z,100231.50
2022-11-09T11:39:12.838Z,100229.06
2022-11-09T11:41:39.432Z,100232.69
2022-11-09T11:44:41.909Z,100235.94
2022-11-09T11:47:41.466Z,100238.31
2022-11-09T11:50:32.867Z,100241.16
2022-11-09T11:52:59.624Z,100241.94
2022-11-09T11:55:31.818Z,100252.50
2022-11-09T11:58:13.511Z,100244.94
2022-11-09T12:00:49.524Z,100248.56
2022-11-09T12:03:39.115Z,100251.88
2022-11-09T12:06:23.543Z,100253.91
2022-11-09T12:09:18.330Z,100256.81
2022-11-09T12:12:01.163Z,100245.19
2022-11-09T12:14:56.613Z,100237.94
2022-11-09T12:17:46.185Z,100255.69
2022-11-09T12:20:25.239Z,100246.47
2022-11-09T12:23:15.394Z,100252.16
2022-11-09T12:26:22.877Z,100244.06
2022-11-09T12:29:05.632Z,100251.34
2022-11-09T12:31:59.957Z,100244.88
2022-11-09T12:34:38.871Z,100240.41
2022-11-09T12:37:13.283Z,100244.84
2022-11-09T12:39:53.486Z,100241.94
2022-11-09T12:42:37.419Z,100247.19
2022-11-09T12:45:24.734Z,100248.34
2022-11-09T12:47:54.658Z,100242.22
2022-11-09T12:50:25.399Z,100235.72
2022-11-09T12:52:52.777Z,100242.16
2022-11-09T12:55:27.189Z,100242.59
2022-11-09T12:58:00.536Z,100251.03
2022-11-09T13:00:33.815Z,100247.81
2022-11-09T13:03:15.248Z,100249.41
2022-11-09T13:05:43.216Z,100254.22
2022-11-09T13:08:19.033Z,100259.88
2022-11-09T13:10:45.538Z,100260.28
2022-11-09T13:13:12.109Z,100255.03
2022-11-09T13:15:39.997Z,100249.03
2022-11-09T13:18:46.052Z,100248.69
2022-11-09T13:21:25.234Z,100253.91
2022-11-09T13:24:01.266Z,100259.97
2022-11-09T13:26:31.749Z,100262.00
2022-11-09T13:29:23.111Z,100266.06
2022-11-09T13:32:11.015Z,100266.88
2022-11-09T13:34:54.503Z,100267.69
2022-11-09T13:37:42.450Z,100270.91
2022-11-09T13:40:35.877Z,100275.38
2022-11-09T13:43:05.745Z,100276.13
2022-11-09T13:45:44.155Z,100275.75
2022-11-09T13:48:29.305Z,100282.66
2022-11-09T13:50:58.978Z,100278.59
2022-11-09T13:53:37.603Z,100279.47
2022-11-09T13:56:27.843Z,100276.25
2022-11-09T13:58:59.261Z,100283.91
2022-11-09T14:01:38.303Z,100282.69
2022-11-09T14:04:07.036Z,100286.34
2022-11-09T14:06:33.546Z,100295.19
2022-11-09T14:09:01.323Z,100295.25
2022-11-09T14:12:04.086Z,100296.06
2022-11-09T14:14:36.136Z,100301.28
2022-11-09T14:17:22.131Z,100310.19
2022-11-09T14:19:54.441Z,100310.97
2022-11-09T14:22:20.947Z,100316.25
2022-11-09T14:24:47.398Z,100310.63
2022-11-09T14:27:22.349Z,100310.63
2022-11-09T14:29:57.103Z,100316.31
2022-11-09T14:32:31.749Z,100304.22
2022-11-09T14:35:22.377Z,100316.75
2022-11-09T14:37:50.560Z,100313.09
2022-11-09T14:40:30.887Z,100310.69
2022-11-09T14:43:05.291Z,100323.97
2022-11-09T14:45:31.684Z,100325.19
2022-11-09T14:48:00.191Z,100332.06
2022-11-09T14:50:32.188Z,100332.84
2022-11-09T14:53:00.294Z,100328.84
2022-11-09T14:55:27.289Z,100334.88
2022-11-09T14:57:55.764Z,100337.75
2022-11-09T15:00:29.179Z,100346.59
2022-11-09T15:02:56.817Z,100348.59
2022-11-09T15:05:39.880Z,100349.84
2022-11-09T15:08:20.214Z,100349.84
2022-11-09T15:10:52.231Z,100360.31
2022-11-09T15:13:27.795Z,100363.13
2022-11-09T15:15:55.141Z,100369.19
2022-11-09T15:18:33.450Z,100370.00
2022-11-09T15:21:25.463Z,100365.56
2022-11-09T15:24:10.046Z,100365.59
2022-11-09T15:26:44.296Z,100368.44
2022-11-09T15:29:37.198Z,100374.47
2022-11-09T15:32:16.577Z,100370.88
2022-11-09T15:34:56.350Z,100366.03
2022-11-09T15:37:25.203Z,100373.69
2022-11-09T15:39:51.861Z,100392.63
2022-11-09T15:42:18.599Z,100391.41
2022-11-09T15:44:45.022Z,100385.00
2022-11-09T15:47:34.232Z,100394.22
2022-11-09T15:50:07.860Z,100391.41
2022-11-09T15:52:35.616Z,100393.81
2022-11-09T15:55:02.016Z,100395.03
2022-11-09T15:57:28.666Z,100399.06
2022-11-09T15:59:55.266Z,100401.03
2022-11-09T16:02:21.639Z,100413.09
2022-11-09T16:04:48.033Z,100409.09
2022-11-09T16:07:17.023Z,100428.38
2022-11-09T16:09:43.835Z,100417.09
2022-11-09T16:12:10.290Z,100431.56
2022-11-09T16:14:38.306Z,100425.09
2022-11-09T16:17:05.484Z,100428.31
2022-11-09T16:19:31.978Z,100432.72
2022-11-09T16:21:59.025Z,100437.13
2022-11-09T16:24:25.659Z,100449.59
2022-11-09T16:26:54.030Z,100453.22
2022-11-09T16:29:23.630Z,100446.38
2022-11-09T16:31:52.403Z,100459.63
2022-11-09T16:34:19.837Z,100456.03
2022-11-09T16:36:52.338Z,100469.28
2022-11-09T16:39:22.105Z,100457.59
2022-11-09T16:41:50.075Z,100467.25
2022-11-09T16:44:20.757Z,100470.00
2022-11-09T16:46:48.162Z,100467.16
2022-11-09T16:49:14.835Z,100470.78
2022-11-09T16:51:41.224Z,100487.63
2022-11-09T16:54:07.801Z,100486.81
2022-11-09T16:56:35.267Z,100493.25
2022-11-09T16:59:01.848Z,100492.00
2022-11-09T17:01:28.374Z,100486.34
2022-11-09T17:03:56.276Z,100494.78
2022-11-09T17:06:22.854Z,100502.78
2022-11-09T17:08:49.462Z,100503.59
2022-11-09T17:11:16.199Z,100511.19
2022-11-09T17:13:42.919Z,100513.56
2022-11-09T17:16:12.168Z,100517.56
2022-11-09T17:18:39.397Z,100518.75
2022-11-09T17:21:10.596Z,100512.69
2022-11-09T17:23:37.981Z,100519.13
2022-11-09T17:26:06.569Z,100525.91
2022-11-09T17:28:33.772Z,100529.94
2022-11-09T17:31:06.714Z,100533.53
2022-11-09T17:33:33.089Z,100543.53
2022-11-09T17:36:01.344Z,100541.94
2022-11-09T17:38:29.444Z,100552.31
2022-11-09T17:41:04.292Z,100555.91
2022-11-09T17:43:32.651Z,100553.50
2022-11-09T17:46:07.071Z,100555.47
2022-11-09T17:48:35.581Z,100561.88
2022-11-09T17:51:02.964Z,100565.88
2022-11-09T17:53:30.092Z,100560.63
2022-11-09T17:55:56.643Z,100563.09
2022-11-09T17:58:23.701Z,100570.72
2022-11-09T18:00:51.618Z,100567.09
2022-11-09T18:03:18.217Z,100572.72
2022-11-09T18:05:45.574Z,100572.28
2022-11-09T18:08:14.920Z,100583.91
2022-11-09T18:10:43.897Z,100579.50
2022-11-09T18:13:10.551Z,100589.91
2022-11-09T18:15:37.744Z,100592.28
2022-11-09T18:18:05.312Z,100593.91
2022-11-09T18:20:32.290Z,100593.09
2022-11-09T18:22:58.736Z,100582.66
2022-11-09T18:25:26.707Z,100598.72
2022-11-09T18:27:53.034Z,100606.34
2022-11-09T18:30:19.822Z,100605.53
2022-11-09T18:32:46.633Z,100605.53
2022-11-09T18:35:12.972Z,100613.16
2022-11-09T18:37:39.728Z,100611.53
2022-11-09T18:40:07.395Z,100613.53
2022-11-09T18:42:33.920Z,100617.16
2022-11-09T18:45:01.082Z,100617.53
2022-11-09T18:47:30.738Z,100619.53
2022-11-09T18:49:57.070Z,100626.34
2022-11-09T18:52:23.432Z,100627.50
2022-11-09T18:54:49.848Z,100632.31
2022-11-09T18:57:19.781Z,100639.13
2022-11-09T18:59:46.607Z,100649.53
2022-11-09T19:02:13.951Z,100657.16
2022-11-09T19:04:40.370Z,100661.97
2022-11-09T19:07:06.820Z,100659.56
2022-11-09T19:09:38.806Z,100658.75
2022-11-09T19:12:08.734Z,100667.53
2022-11-09T19:14:43.951Z,100675.16
2022-11-09T19:17:15.114Z,100666.72
2022-11-09T19:19:42.202Z,100663.94
2022-11-09T19:22:15.250Z,100669.94
2022-11-09T19:24:41.897Z,100681.59
2022-11-09T19:27:08.984Z,100686.38
2022-11-09T19:29:35.405Z,100682.78
2022-11-09T19:32:02.048Z,100686.78
2022-11-09T19:34:28.392Z,100683.16
2022-11-09T19:36:54.909Z,100695.59
2022-11-09T19:39:21.312Z,100700.41
2022-11-09T19:41:48.541Z,100701.22
2022-11-09T19:44:17.790Z,100706.38
2022-11-09T19:46:44.343Z,100710.41
2022-11-09T19:49:11.198Z,100712.78
2022-11-09T19:51:38.677Z,100717.59
2022-11-09T19:54:05.986Z,100727.63
2022-11-09T19:56:33.341Z,100729.25
2022-11-09T19:59:01.684Z,100728.03
2022-11-09T20:01:29.062Z,100734.91
2022-11-09T20:04:00.015Z,100737.75
2022-11-09T20:06:27.680Z,100750.63
2022-11-09T20:08:54.634Z,100740.25
2022-11-09T20:11:43.281Z,100745.03
2022-11-09T20:14:10.918Z,100758.69
2022-11-09T20:16:38.358Z,100755.09
2022-11-09T20:19:09.314Z,100765.88
2022-11-09T20:21:36.596Z,100769.88
2022-11-09T20:24:03.487Z,100773.09
2022-11-09T20:26:29.854Z,100787.88
2022-11-09T20:28:56.660Z,100776.59
2022-11-09T20:31:23.490Z,100782.97
2022-11-09T20:33:50.898Z,100787.75
2022-11-09T20:36:18.991Z,100794.91
2022-11-09T20:38:46.453Z,100804.09
2022-11-09T20:41:13.194Z,100806.44
2022-11-09T20:43:40.397Z,100808.00
2022-11-09T20:46:09.813Z,100807.50
2022-11-09T20:48:53.508Z,100813.06
2022-11-09T20:51:21.526Z,100812.66
2022-11-09T20:53:52.544Z,100818.19
2022-11-09T20:56:20.289Z,100816.13
2022-11-09T20:58:47.148Z,100820.13
2022-11-09T21:01:27.305Z,100825.25
2022-11-09T21:03:54.264Z,100830.88
2022-11-09T21:06:23.794Z,100838.84
2022-11-09T21:08:52.744Z,100842.78
2022-11-09T21:11:20.206Z,100841.53
2022-11-09T21:13:53.615Z,100840.66
2022-11-09T21:16:21.448Z,100851.88
2022-11-09T21:18:48.512Z,100851.47
2022-11-09T21:21:20.088Z,100851.78
2022-11-09T21:24:05.316Z,100857.38
2022-11-09T21:26:50.884Z,100864.94
2022-11-09T21:29:38.156Z,100869.28
2022-11-09T21:32:05.815Z,100868.84
2022-11-09T21:34:36.458Z,100871.59
2022-11-09T21:37:03.846Z,100877.19
2022-11-09T21:39:30.248Z,100877.97
2022-11-09T21:41:57.498Z,100878.66
2022-11-09T21:44:24.817Z,100886.25
2022-11-09T21:46:51.364Z,100884.28
2022-11-09T21:49:17.902Z,100881.00
2022-11-09T21:51:46.692Z,100886.63
2022-11-09T21:54:13.115Z,100881.84
2022-11-09T21:56:39.701Z,100888.25
2022-11-09T21:59:06.116Z,100876.25
2022-11-09T22:01:32.794Z,100881.84
2022-11-09T22:03:59.746Z,100883.47
2022-11-09T22:06:26.871Z,100882.66
2022-11-09T22:08:53.836Z,100897.47
2022-11-09T22:11:46.031Z,100891.81
2022-11-09T22:14:36.982Z,100896.22
2022-11-09T22:17:05.412Z,100897.03
2022-11-09T22:19:50.791Z,100898.22
2022-11-09T22:22:17.184Z,100903.41
2022-11-09T22:24:43.755Z,100895.72
2022-11-09T22:27:10.133Z,100907.31
2022-11-09T22:29:36.764Z,100906.03
2022-11-09T22:32:03.521Z,100903.19
2022-11-09T22:34:29.874Z,100903.53
2022-11-09T22:36:56.435Z,100908.72
2022-11-09T22:39:23.011Z,100913.06
2022-11-09T22:41:49.642Z,100908.66
2022-11-09T22:44:16.298Z,100916.63
2022-11-09T22:46:42.839Z,100919.44
2022-11-09T22:49:10.145Z,100922.25
2022-11-09T22:51:36.539Z,100923.78
2022-11-09T22:54:03.154Z,100930.56
2022-11-09T22:56:29.511Z,100937.78
2022-11-09T22:58:56.117Z,100942.97
2022-11-09T23:01:25.052Z,100944.50
2022-11-09T23:03:52.160Z,100949.28
2022-11-09T23:06:21.112Z,100949.69
2022-11-09T23:08:48.867Z,100960.88
2022-11-09T23:11:19.100Z,100956.47
2022-11-09T23:13:49.789Z,100960.06
2022-11-09T23:16:16.397Z,100954.81
2022-11-09T23:18:55.628Z,100964.41
2022-11-09T23:21:29.610Z,100975.19
2022-11-09T23:23:59.532Z,100971.56
2022-11-09T23:26:27.533Z,100965.97
2022-11-09T23:28:54.822Z,100968.31
2022-11-09T23:31:25.952Z,100977.09
2022-11-09T23:33:54.546Z,100979.09
2022-11-09T23:36:21.895Z,100985.88
2022-11-09T23:38:48.281Z,100981.91
2022-11-09T23:41:15.597Z,100990.22
2022-11-09T23:43:47.644Z,100989.78
2022-11-09T23:46:15.769Z,100999.34
2022-11-09T23:48:42.649Z,101006.50
2022-11-09T23:51:09.537Z,101001.63
2022-11-09T23:53:36.379Z,101009.22
2022-11-09T23:56:06.944Z,101016.72
2022-11-09T23:58:34.091Z,101021.16
